Latest Weather Observations for Batchelor

IDD60901

Issued at 9:01 am CST Sunday 19 April 2015 (issued every 10 minutes, with the page automatically refreshed every 10 minutes)

About weather observations | Map of Darwin area stations | Latest observations for Darwin area | Other Formats
Station Details ID: 014272 Name: BATCHELOR AIRPORT Lat: -13.05 Lon: 131.03 Height: 104.0 m
Data from the previous 72 hours. | See also: Recent months at Batchelor
Date/Time
CST
Tmp

°C
App
Tmp
°C
Dew
Point
°C
Rel
Hum
%
Delta-T

°C
Wind Press
QNH
hPa
Press
MSL
hPa
Rain
since
9 am
mm
Dir
 
Spd
km/h
Gust
km/h
Spd
kts
Gust
kts
19/09:00am 27.9 33.5 23.5 77 3.0 CALM 0 6 0 3 1013.5 1012.8 0.0
19/08:30am 26.6 31.9 24.4 88 1.5 SW 4 6 2 3 1013.3 1012.6 0.0
19/08:00am 25.5 31.4 24.1 92 1.0 CALM 0 4 0 2 1013.0 1012.3 0.0
19/07:30am 24.2 29.6 23.3 95 0.6 CALM 0 0 0 0 1012.9 1012.2 0.0
19/07:00am 23.1 27.8 21.9 93 0.8 CALM 0 0 0 0 1012.6 1012.0 0.0
19/06:30am 23.5 28.5 22.5 94 0.7 CALM 0 0 0 0 1012.4 1011.8 0.0
19/06:00am 23.7 28.2 23.0 96 0.5 NE 4 4 2 2 1012.2 1011.6 0.0
19/05:30am 23.1 27.9 22.1 94 0.7 CALM 0 0 0 0 1011.7 1011.1 0.0
19/05:00am 23.8 28.7 23.0 95 0.5 NE 2 4 1 2 1011.7 1011.1 0.0
19/04:30am 23.5 28.4 22.3 93 0.8 CALM 0 0 0 0 1011.6 1011.0 0.0
19/04:00am 23.8 29.1 23.0 95 0.5 CALM 0 0 0 0 1011.5 1010.9 0.0
19/03:30am 23.6 28.7 22.6 94 0.7 CALM 0 0 0 0 1011.5 1010.9 0.0
19/03:00am 23.6 28.4 22.2 92 0.9 CALM 0 0 0 0 1011.5 1010.9 0.0
19/02:30am 23.7 28.5 22.1 91 1.1 CALM 0 0 0 0 1011.7 1011.1 0.0
19/02:00am 24.2 29.3 22.6 91 1.1 CALM 0 0 0 0 1011.8 1011.2 0.0
19/01:30am 24.6 30.1 23.4 93 0.8 CALM 0 0 0 0 1012.1 1011.5 0.0
19/01:00am 24.3 29.5 22.9 92 0.9 CALM 0 0 0 0 1012.1 1011.5 0.0
19/12:30am 24.7 29.8 23.3 92 1.0 SW 2 4 1 2 1012.3 1011.7 0.0
19/12:00am 24.8 29.4 23.2 91 1.1 WSW 4 6 2 3 1012.6 1012.0 0.0
 
Date/Time
CST
Tmp

°C
App
Tmp
°C
Dew
Point
°C
Rel
Hum
%
Delta-T

°C
Wind Press
QNH
hPa
Press
MSL
hPa
Rain
since
9 am
mm
Dir
 
Spd
km/h
Gust
km/h
Spd
kts
Gust
kts
18/11:30pm 25.0 30.4 23.2 90 1.2 CALM 0 0 0 0 1012.9 1012.2 0.0
18/11:00pm 25.2 30.5 23.1 88 1.4 CALM 0 0 0 0 1012.8 1012.1 0.0
18/10:30pm 26.0 30.9 23.7 87 1.6 NW 4 6 2 3 1012.6 1012.0 0.0
18/10:00pm 26.2 31.2 23.9 87 1.6 NW 4 6 2 3 1012.4 1011.8 0.0
18/09:30pm 26.4 30.9 23.7 85 1.9 NW 6 9 3 5 1012.2 1011.6 0.0
18/09:00pm 26.9 31.3 23.8 83 2.1 NNW 7 13 4 7 1011.9 1011.3 0.0
18/08:30pm 27.1 31.4 23.3 80 2.6 NW 6 7 3 4 1011.2 1010.6 0.0
18/08:00pm 26.8 31.7 22.4 77 3.0 CALM 0 0 0 0 1010.6 1009.9 0.0
18/07:30pm 27.5 32.8 23.1 77 3.0 CALM 0 0 0 0 1010.4 1009.7 0.0
18/07:00pm 28.4 33.6 22.9 72 3.8 CALM 0 0 0 0 1010.1 1009.4 0.0
18/06:30pm 29.9 34.6 22.6 65 5.0 SSE 2 2 1 1 1009.6 1008.9 0.0
18/06:00pm 31.3 34.9 21.2 55 6.8 SSE 4 4 2 2 1009.4 1008.7 0.0
18/05:30pm 31.8 35.1 20.7 51 7.4 SSE 4 6 2 3 1009.1 1008.4 0.0
18/05:00pm 31.8 34.4 20.1 50 7.8 SE 6 7 3 4 1008.8 1008.1 0.0
18/04:30pm 32.4 35.1 20.6 49 7.9 E 7 11 4 6 1008.6 1007.9 0.0
18/04:00pm 30.9 33.7 20.5 54 6.9 SE 6 9 3 5 1008.7 1008.0 0.0
18/03:30pm 30.6 30.5 19.6 51 7.2 SE 19 35 10 19 1009.0 1008.3 0.0
18/03:00pm 33.7 35.9 20.5 46 8.9 E 9 19 5 10 1009.0 1008.3 0.0
18/02:30pm 32.9 36.0 21.1 50 8.0 ENE 6 9 3 5 1009.3 1008.6 0.0
18/02:00pm 32.9 35.7 20.4 47 8.4 NE 6 9 3 5 1010.0 1009.3 0.0
18/01:30pm 32.6 35.6 20.8 49 7.9 NNE 6 15 3 8 1010.4 1009.7 0.0
18/01:00pm 32.4 35.3 21.0 51 7.7 ENE 7 15 4 8 1010.8 1010.1 0.0
18/12:30pm 32.1 35.4 21.9 54 7.0 E 7 15 4 8 1011.2 1010.6 0.0
18/12:00pm 31.3 34.3 21.2 55 6.8 ENE 7 13 4 7 1012.0 1011.4 0.0
18/11:30am 31.4 34.5 22.1 57 6.3 NE 9 13 5 7 1012.5 1011.9 0.0
18/11:00am 30.6 33.8 21.7 59 6.0 ENE 7 11 4 6 1013.3 1012.6 0.0
18/10:30am 30.4 34.0 22.0 60 5.7 E 6 13 3 7 1013.7 1013.0 0.0
18/10:00am 29.6 33.5 22.6 66 4.8 ESE 6 13 3 7 1013.6 1012.9 0.0
18/09:30am 29.1 33.2 24.0 74 3.5 ESE 9 13 5 7 1013.4 1012.7 0.0
18/09:00am 28.2 31.4 23.1 74 3.5 E 11 17 6 9 1013.2 1012.5 0.0
18/08:30am 27.0 31.1 23.3 80 2.5 E 7 9 4 5 1013.0 1012.3 0.0
18/08:00am 25.7 30.2 23.0 85 1.8 E 4 6 2 3 1012.9 1012.2 0.0
18/07:30am 24.8 28.8 22.7 88 1.4 E 6 6 3 3 1012.5 1011.9 0.0
18/07:00am 23.5 27.5 22.1 92 0.9 ENE 4 4 2 2 1012.1 1011.5 0.0
18/06:30am 23.6 27.7 22.2 92 0.9 ENE 4 6 2 3 1011.6 1011.0 0.0
18/06:00am 23.8 27.9 22.2 91 1.1 E 4 6 2 3 1011.4 1010.8 0.0
18/05:30am 23.6 28.4 22.2 92 0.9 CALM 0 0 0 0 1011.0 1010.4 0.0
18/05:00am 23.8 28.6 22.2 91 1.1 CALM 0 0 0 0 1011.0 1010.4 0.0
18/04:30am 24.0 28.9 22.3 90 1.1 CALM 0 0 0 0 1011.2 1010.6 0.0
18/04:00am 24.1 29.1 22.5 91 1.1 CALM 0 0 0 0 1010.9 1010.2 0.0
18/03:30am 24.1 29.0 22.4 90 1.1 CALM 0 0 0 0 1011.0 1010.4 0.0
18/03:00am 24.4 29.4 22.5 89 1.3 CALM 0 0 0 0 1010.9 1010.2 0.0
18/02:30am 24.4 29.3 22.3 88 1.4 CALM 0 0 0 0 1011.0 1010.4 0.0
18/02:00am 24.8 29.9 22.7 88 1.4 CALM 0 0 0 0 1011.2 1010.6 0.0
18/01:30am 25.4 30.8 23.3 88 1.4 CALM 0 0 0 0 1011.7 1011.1 0.0
18/01:00am 25.1 30.2 22.6 86 1.7 CALM 0 0 0 0 1012.1 1011.5 0.0
18/12:30am 25.4 30.5 22.7 85 1.8 CALM 0 0 0 0 1012.3 1011.7 0.0
18/12:00am 25.7 30.5 22.2 81 2.4 CALM 0 0 0 0 1012.5 1011.9 0.0
 
Date/Time
CST
Tmp

°C
App
Tmp
°C
Dew
Point
°C
Rel
Hum
%
Delta-T

°C
Wind Press
QNH
hPa
Press
MSL
hPa
Rain
since
9 am
mm
Dir
 
Spd
km/h
Gust
km/h
Spd
kts
Gust
kts
17/11:30pm 26.3 30.9 22.4 79 2.6 SW 2 4 1 2 1012.5 1011.9 0.0
17/11:00pm 26.4 31.5 22.7 80 2.5 CALM 0 0 0 0 1012.6 1012.0 0.0
17/10:30pm 26.5 31.2 22.6 79 2.6 WSW 2 4 1 2 1012.6 1012.0 0.0
17/10:00pm 26.8 31.7 22.4 77 3.0 CALM 0 2 0 1 1012.4 1011.8 0.0
17/09:30pm 26.9 30.6 22.5 77 3.0 WSW 7 9 4 5 1012.1 1011.5 0.0
17/09:00pm 27.5 31.7 22.4 73 3.5 N 4 7 2 4 1011.7 1011.1 0.0
17/08:30pm 28.0 31.9 22.5 72 3.7 N 6 7 3 4 1011.3 1010.7 0.0
17/08:00pm 28.5 32.2 22.5 70 4.1 N 7 17 4 9 1010.8 1010.1 0.0
17/07:30pm 29.4 32.2 21.6 63 5.3 N 9 17 5 9 1010.3 1009.6 0.0
17/07:00pm 29.9 33.1 20.5 57 6.2 N 4 6 2 3 1009.8 1009.1 0.0
17/06:30pm 31.3 33.9 19.3 49 7.9 NE 4 9 2 5 1009.6 1008.9 0.0
17/06:00pm 32.2 34.2 18.8 45 8.8 ENE 6 9 3 5 1009.3 1008.6 0.0
17/05:30pm 33.1 35.1 18.8 42 9.4 NE 6 11 3 6 1009.1 1008.4 0.0
17/05:00pm 33.7 35.1 18.6 40 9.9 NE 9 15 5 8 1008.8 1008.1 0.0
17/04:30pm 33.5 35.3 18.8 41 9.7 ENE 7 11 4 6 1008.7 1008.0 0.0
17/04:00pm 33.6 34.5 18.5 40 9.9 ENE 11 15 6 8 1008.8 1008.1 0.0
17/03:30pm 33.4 35.6 19.5 44 9.2 ENE 7 11 4 6 1008.9 1008.2 0.0
17/03:00pm 34.1 35.6 19.7 42 9.6 ENE 11 19 6 10 1009.1 1008.4 0.0
17/02:30pm 33.4 35.0 19.1 42 9.4 NE 9 15 5 8 1009.6 1008.9 0.0
17/02:00pm 33.3 34.8 19.0 42 9.4 NE 9 17 5 9 1010.1 1009.4 0.0
17/01:30pm 32.7 34.3 19.2 44 8.9 NE 9 17 5 9 1010.6 1009.9 0.0
17/01:00pm 32.4 34.1 19.3 46 8.6 NE 9 17 5 9 1011.2 1010.6 0.0
17/12:30pm 31.7 33.4 19.3 47 8.2 ENE 9 15 5 8 1011.8 1011.2 0.0
17/12:00pm 31.5 33.0 19.8 49 7.7 NE 11 19 6 10 1012.3 1011.7 0.0
17/11:30am 31.4 33.9 21.0 54 7.0 ENE 9 17 5 9 1012.9 1012.2 0.0
17/11:00am 31.2 33.6 20.8 54 7.0 ENE 9 17 5 9 1013.3 1012.6 0.0
17/10:30am 29.8 31.6 20.4 57 6.2 E 11 19 6 10 1013.8 1013.1 0.0
17/10:00am 29.5 31.8 20.6 58 5.9 E 9 15 5 8 1014.0 1013.3 0.0
17/09:30am 28.9 32.0 21.4 64 5.0 ESE 7 13 4 7 1014.0 1013.3 0.0
17/09:00am 28.9 32.0 21.4 64 5.0 SE 7 13 4 7 1014.1 1013.4 0.0
17/08:30am 27.0 30.7 22.2 75 3.2 SSE 6 9 3 5 1014.0 1013.3 0.0
17/08:00am 24.7 29.2 22.2 86 1.7 ESE 2 2 1 1 1013.7 1013.0 0.0
17/07:30am 23.8 28.5 21.9 89 1.3 CALM 0 0 0 0 1013.4 1012.7 0.0
17/07:00am 23.8 28.4 21.7 88 1.4 CALM 0 0 0 0 1013.0 1012.3 0.0
17/06:30am 24.3 28.8 21.6 85 1.8 CALM 0 0 0 0 1012.3 1011.7 0.0
17/06:00am 25.0 28.8 21.7 82 2.2 ESE 4 6 2 3 1012.1 1011.5 0.0
17/05:30am 25.2 29.1 21.9 82 2.2 SE 4 6 2 3 1011.9 1011.3 0.0
17/05:00am 25.5 29.5 22.0 81 2.3 SE 4 4 2 2 1011.8 1011.2 0.0
17/04:30am 25.4 30.5 22.7 85 1.8 CALM 0 2 0 1 1012.1 1011.5 0.0
17/04:00am 25.6 30.5 22.3 82 2.2 CALM 0 0 0 0 1012.0 1011.4 0.0
17/03:30am 25.6 29.5 21.9 80 2.5 SE 4 4 2 2 1012.1 1011.5 0.0
17/03:00am 25.1 29.0 21.8 82 2.2 ENE 4 4 2 2 1012.2 1011.6 0.0
17/02:30am 25.5 29.4 21.8 80 2.5 ENE 4 6 2 3 1012.4 1011.8 0.0
17/02:00am 25.8 29.4 21.2 76 3.1 ENE 4 6 2 3 1012.6 1012.0 0.0
17/01:30am 25.9 29.5 21.3 76 3.1 ENE 4 6 2 3 1013.2 1012.5 0.0
17/01:00am 26.8 30.0 21.3 72 3.7 NE 6 9 3 5 1013.6 1012.9 0.0
17/12:30am 27.0 30.3 21.5 72 3.7 NE 6 9 3 5 1013.9 1013.2 0.0
17/12:00am 27.0 30.7 21.5 72 3.7 NE 4 6 2 3 1014.0 1013.3 0.0
 
Date/Time
CST
Tmp

°C
App
Tmp
°C
Dew
Point
°C
Rel
Hum
%
Delta-T

°C
Wind Press
QNH
hPa
Press
MSL
hPa
Rain
since
9 am
mm
Dir
 
Spd
km/h
Gust
km/h
Spd
kts
Gust
kts
16/11:30pm 27.0 30.2 21.3 71 3.8 NE 6 9 3 5 1014.2 1013.5 0.0
16/11:00pm 26.9 30.4 21.9 74 3.4 NE 6 7 3 4 1014.4 1013.7 0.0
16/10:30pm 26.7 29.9 21.7 74 3.3 E 7 9 4 5 1014.6 1013.9 0.0
16/10:00pm 26.5 30.3 21.7 75 3.2 ESE 4 6 2 3 1014.5 1013.8 0.0
16/09:30pm 27.5 31.2 21.5 70 4.0 ENE 4 7 2 4 1014.2 1013.5 0.0
16/09:00pm 27.7 30.7 21.3 68 4.3 NNE 7 11 4 6 1014.2 1013.5 0.0
16/08:30pm 28.0 31.1 21.1 66 4.6 NNE 6 9 3 5 1014.0 1013.3 0.0
16/08:00pm 28.6 31.1 20.3 60 5.5 NNE 7 15 4 8 1013.3 1012.6 0.0
16/07:30pm 28.8 31.1 19.4 56 6.1 NE 6 13 3 7 1012.5 1011.9 0.0
16/07:00pm 29.5 31.6 18.9 53 6.9 ENE 6 7 3 4 1011.9 1011.3 0.0
16/06:30pm 30.6 33.1 19.0 50 7.6 NE 4 6 2 3 1011.5 1010.9 0.0
16/06:00pm 31.5 33.5 18.8 46 8.3 NE 6 9 3 5 1011.3 1010.7 0.0
16/05:30pm 32.4 33.9 18.9 44 8.8 ENE 9 13 5 7 1011.1 1010.5 0.0
16/05:00pm 32.7 33.6 18.5 43 9.3 ENE 11 17 6 9 1011.0 1010.4 0.0
16/04:30pm 32.8 33.2 18.2 42 9.5 ENE 13 20 7 11 1011.0 1010.4 0.0
16/04:00pm 33.0 33.9 18.4 42 9.5 ENE 11 22 6 12 1011.0 1010.4 0.0
16/03:30pm 33.0 33.8 19.1 43 9.1 ENE 13 19 7 10 1011.2 1010.6 0.0
16/03:00pm 32.7 34.0 19.2 44 8.9 NE 11 19 6 10 1011.4 1010.8 0.0
16/02:30pm 32.9 33.9 19.4 45 8.9 E 13 26 7 14 1011.7 1011.1 0.0
16/02:00pm 32.6 34.1 20.5 49 8.1 E 13 24 7 13 1012.2 1011.6 0.0
16/01:30pm 32.2 33.8 20.8 51 7.7 NE 13 22 7 12 1012.5 1011.9 0.0
16/01:00pm 32.0 32.6 20.3 50 7.8 ENE 17 24 9 13 1013.2 1012.5 0.0
16/12:30pm 31.3 32.8 21.2 55 6.8 E 15 24 8 13 1013.7 1013.0 0.0
16/12:00pm 31.1 32.2 20.4 53 7.1 ENE 15 24 8 13 1014.3 1013.6 0.0
16/11:30am 30.4 32.1 20.9 57 6.4 E 13 24 7 13 1015.1 1014.4 0.0
16/11:00am 30.2 31.8 20.7 56 6.3 ENE 13 20 7 11 1015.8 1015.1 0.0
16/10:30am 29.6 31.0 21.0 60 5.7 E 15 20 8 11 1016.1 1015.4 0.0
16/10:00am 29.1 31.5 21.6 64 5.0 ESE 11 20 6 11 1016.0 1015.3 0.0
16/09:30am 28.4 31.3 22.4 70 4.1 ESE 11 17 6 9 1015.9 1015.2 0.0

Latest Capital City Observations: Canberra | Sydney | Melbourne | Brisbane | Adelaide | Perth | Hobart | Darwin

Other Formats:

Comma delimited format used in spreadsheet applications
http://www.bom.gov.au/fwo/IDD60901/IDD60901.94125.axf

JavaScript Object Notation format (JSON) in row-major order
http://www.bom.gov.au/fwo/IDD60901/IDD60901.94125.json